createdAt,value
2022-08-23T08:14:52.298Z,23.57
2022-08-23T12:11:18.678Z,17.67
2022-08-23T12:14:01.467Z,20.60
2022-08-23T12:16:46.255Z,19.90
2022-08-23T12:19:30.791Z,22.63
2022-08-23T12:22:06.930Z,21.20
2022-08-23T12:24:46.797Z,20.90
2022-08-23T12:27:38.200Z,20.70
2022-08-23T12:30:18.964Z,21.57
2022-08-23T12:32:55.415Z,24.00
2022-08-23T12:35:40.025Z,21.97
2022-08-23T12:38:20.256Z,21.90
2022-08-23T12:40:54.566Z,22.67
2022-08-23T12:43:56.774Z,23.20
2022-08-23T12:46:39.196Z,23.17
2022-08-23T12:49:13.159Z,23.37
2022-08-23T12:51:51.474Z,22.53
2022-08-23T12:54:23.389Z,21.63
2022-08-23T12:57:02.163Z,21.80
2022-08-23T12:59:41.098Z,21.50
2022-08-23T13:02:17.826Z,20.60
2022-08-23T13:04:47.238Z,20.27
2022-08-23T13:07:21.577Z,20.80
2022-08-23T13:09:53.918Z,37.80
2022-08-23T13:12:24.935Z,28.43
2022-08-23T13:14:56.243Z,22.40
2022-08-23T13:17:37.077Z,22.97
2022-08-23T13:20:21.861Z,21.27
2022-08-23T13:23:00.582Z,21.80
2022-08-23T13:25:32.853Z,21.57
2022-08-23T13:28:05.203Z,20.57
2022-08-23T13:30:36.646Z,21.13
2022-08-23T13:33:25.711Z,20.43
2022-08-23T13:36:13.190Z,19.87
2022-08-23T13:38:44.773Z,19.77
2022-08-23T13:41:30.269Z,19.87
2022-08-23T13:44:00.551Z,21.30
2022-08-23T13:46:32.636Z,20.67
2022-08-23T13:49:05.696Z,19.57
2022-08-23T13:51:38.566Z,19.70
2022-08-23T13:54:10.310Z,18.73
2022-08-23T13:56:44.306Z,18.67
2022-08-23T13:59:24.090Z,17.07
2022-08-23T14:02:02.688Z,17.90
2022-08-23T14:04:34.004Z,18.30
2022-08-23T14:07:03.251Z,18.07
2022-08-23T14:09:33.801Z,18.43
2022-08-23T14:12:06.615Z,16.30
2022-08-23T14:14:39.963Z,16.23
2022-08-23T14:17:11.381Z,16.20
2022-08-23T14:20:32.796Z,16.40
2022-08-23T14:22:38.483Z,17.27
2022-08-23T14:25:08.667Z,15.77
2022-08-23T14:27:39.603Z,16.83
2022-08-23T14:30:11.788Z,17.10
2022-08-23T14:32:43.744Z,16.83
2022-08-23T14:35:14.530Z,16.57
2022-08-23T14:40:33.459Z,16.77
2022-08-23T14:43:03.046Z,16.73
2022-08-23T14:45:32.527Z,16.47
2022-08-23T14:48:01.847Z,16.80
2022-08-23T14:50:32.890Z,15.57
2022-08-23T14:53:05.393Z,16.00
2022-08-23T14:55:34.694Z,16.23
2022-08-23T14:58:04.314Z,15.90
2022-08-23T15:00:35.595Z,14.93
2022-08-23T15:03:09.844Z,15.67
2022-08-23T15:05:41.265Z,14.50
2022-08-23T15:08:10.764Z,14.77
2022-08-23T15:12:57.262Z,15.00
2022-08-23T15:13:35.415Z,14.70
2022-08-23T15:16:07.466Z,15.07
2022-08-23T15:18:38.685Z,15.03
2022-08-23T15:21:11.208Z,14.63
2022-08-23T15:23:40.443Z,14.47
2022-08-23T15:26:09.885Z,14.80
2022-08-23T15:28:39.344Z,14.03
2022-08-23T15:31:09.102Z,14.20
2022-08-23T15:33:38.511Z,14.63
2022-08-23T15:36:09.947Z,15.40
2022-08-23T15:38:41.947Z,14.43
2022-08-23T15:41:11.287Z,13.97
2022-08-23T15:43:40.755Z,15.23
2022-08-23T15:46:13.282Z,14.83
2022-08-23T15:48:48.775Z,15.03
2022-08-23T15:51:20.419Z,14.97
2022-08-23T15:53:49.760Z,14.07
2022-08-23T15:56:21.368Z,15.50
2022-08-23T15:58:51.192Z,14.00
2022-08-23T16:01:24.409Z,13.27
2022-08-23T16:03:54.749Z,13.03
2022-08-23T16:06:26.119Z,13.43
2022-08-23T16:08:55.559Z,12.33
2022-08-23T16:11:31.776Z,11.30
2022-08-23T16:14:04.555Z,10.97
2022-08-23T16:16:39.569Z,11.20
2022-08-23T16:19:09.795Z,10.90
2022-08-23T16:21:41.085Z,10.90
2022-08-23T16:24:10.333Z,10.50
2022-08-23T16:26:42.020Z,10.40
2022-08-23T16:29:13.623Z,10.67
2022-08-23T16:31:43.421Z,11.07
2022-08-23T16:34:15.006Z,12.27
2022-08-23T16:36:47.866Z,13.00
2022-08-23T16:39:18.110Z,11.63
2022-08-23T16:41:47.533Z,11.50
2022-08-23T16:44:16.692Z,12.40
2022-08-23T16:47:05.390Z,12.13
2022-08-23T16:49:42.219Z,11.60
2022-08-23T16:52:15.475Z,11.17
2022-08-23T16:54:49.026Z,11.40
2022-08-23T16:57:18.281Z,10.83
2022-08-23T16:59:47.507Z,11.57
2022-08-23T17:02:28.907Z,12.83
2022-08-23T17:04:58.825Z,17.47
2022-08-23T17:07:29.531Z,24.80
2022-08-23T17:09:58.811Z,26.87
2022-08-23T17:12:28.972Z,34.97
2022-08-23T17:15:20.497Z,30.03
2022-08-23T17:17:50.009Z,31.73
2022-08-23T17:20:44.339Z,28.57
2022-08-23T17:23:14.993Z,25.77
2022-08-23T17:25:48.001Z,21.33
2022-08-23T17:28:18.491Z,18.87
2022-08-23T17:30:47.781Z,19.57
2022-08-23T17:33:16.840Z,18.83
2022-08-23T17:35:46.710Z,19.27
2022-08-23T17:38:17.291Z,18.83
2022-08-23T17:40:46.658Z,16.50
2022-08-23T17:43:15.725Z,18.50
2022-08-23T17:45:48.963Z,16.80
2022-08-23T17:48:21.824Z,17.23
2022-08-23T17:50:52.437Z,21.53
2022-08-23T17:53:25.764Z,18.63
2022-08-23T17:55:55.697Z,19.50
2022-08-23T17:58:25.676Z,24.00
2022-08-23T18:00:58.612Z,27.53
2022-08-23T18:03:31.134Z,27.37
2022-08-23T18:06:01.794Z,23.80
2022-08-23T18:08:50.467Z,22.07
2022-08-23T18:11:21.175Z,23.37
2022-08-23T18:13:51.867Z,23.60
2022-08-23T18:16:21.682Z,20.37
2022-08-23T18:18:51.377Z,20.60
2022-08-23T18:21:22.265Z,19.73
2022-08-23T18:23:54.086Z,21.43
2022-08-23T18:26:42.916Z,20.87
2022-08-23T18:29:14.684Z,20.80
2022-08-23T18:31:45.715Z,20.00
2022-08-23T18:34:15.783Z,19.37
2022-08-23T18:36:45.527Z,20.67
2022-08-23T18:39:16.805Z,19.73
2022-08-23T18:42:01.339Z,18.23
2022-08-23T18:44:30.852Z,18.27
2022-08-23T18:47:00.750Z,17.67
2022-08-23T18:49:30.867Z,19.40
2022-08-23T18:52:00.142Z,18.67
2022-08-23T18:54:33.713Z,19.00
2022-08-23T18:57:03.794Z,18.97
2022-08-23T18:59:32.860Z,21.20
2022-08-23T19:02:02.031Z,23.80
2022-08-23T19:04:31.587Z,26.20
2022-08-23T19:07:00.554Z,23.73
2022-08-23T19:09:31.331Z,28.13
2022-08-23T19:12:01.202Z,28.73
2022-08-23T19:14:33.663Z,30.73
2022-08-23T19:17:06.496Z,36.67
2022-08-23T19:19:36.740Z,33.87
2022-08-23T19:22:06.005Z,39.00
2022-08-23T19:24:38.111Z,35.67
2022-08-23T19:27:07.769Z,32.50
2022-08-23T19:29:38.599Z,26.30
2022-08-23T19:32:08.598Z,24.80
2022-08-23T19:34:38.497Z,24.10
2022-08-23T19:37:10.758Z,22.83
2022-08-23T19:39:54.399Z,23.67
2022-08-23T19:42:24.492Z,21.33
2022-08-23T19:44:55.950Z,22.63
2022-08-23T19:47:28.788Z,22.13
2022-08-23T19:49:59.827Z,24.87
2022-08-23T19:52:29.935Z,23.70
2022-08-23T19:55:05.530Z,24.13
2022-08-23T20:07:39.448Z,22.05
2022-08-23T20:28:08.472Z,26.43
2022-08-23T20:30:39.132Z,25.05
2022-08-23T20:33:32.132Z,23.80
2022-08-23T20:36:02.217Z,22.63
2022-08-23T20:38:33.306Z,22.13
2022-08-23T20:41:05.817Z,22.03
2022-08-23T20:43:39.229Z,20.97
2022-08-23T20:46:12.360Z,21.77
2022-08-23T20:49:00.302Z,21.83
2022-08-23T20:51:30.785Z,19.87
2022-08-23T20:54:06.319Z,18.23
2022-08-23T20:56:37.352Z,19.80
2022-08-23T20:59:07.436Z,18.40
2022-08-23T21:01:38.793Z,18.30
2022-08-23T21:04:13.147Z,17.50
2022-08-23T21:06:49.267Z,18.97
2022-08-23T21:09:21.515Z,17.83
2022-08-23T21:11:54.300Z,17.70
2022-08-23T21:14:23.611Z,16.97
2022-08-23T21:16:53.500Z,16.77
2022-08-23T21:19:22.735Z,17.30
2022-08-23T21:21:52.338Z,18.97
2022-08-23T21:24:21.362Z,18.77
2022-08-23T21:26:51.608Z,19.67
2022-08-23T21:29:22.367Z,19.00
2022-08-23T21:32:10.089Z,19.60
2022-08-23T21:34:39.018Z,20.07
2022-08-23T21:37:07.995Z,21.23
2022-08-23T21:39:36.950Z,21.37
2022-08-23T21:42:15.475Z,20.33
2022-08-23T21:44:46.552Z,21.47
2022-08-23T21:47:15.883Z,22.67
2022-08-23T21:49:44.864Z,23.43
2022-08-23T21:52:13.766Z,20.43
2022-08-23T21:54:43.742Z,18.83
2022-08-23T21:57:13.108Z,19.27
2022-08-23T21:59:42.127Z,18.83
2022-08-23T22:02:12.729Z,18.87
2022-08-23T22:04:41.687Z,17.53
2022-08-23T22:07:10.916Z,14.17
2022-08-23T22:09:39.923Z,17.43
2022-08-23T22:12:09.014Z,18.00
2022-08-23T22:14:38.217Z,17.30
2022-08-23T22:17:07.717Z,19.10
2022-08-23T22:19:38.160Z,21.23
2022-08-23T22:22:07.503Z,21.70
2022-08-23T22:24:36.482Z,21.73
2022-08-23T22:27:05.828Z,21.73
2022-08-23T22:29:34.822Z,23.37
2022-08-23T22:32:04.139Z,23.07
2022-08-23T22:34:33.069Z,23.97
2022-08-23T22:37:03.388Z,24.70
2022-08-23T22:39:32.324Z,22.97
2022-08-23T22:42:01.236Z,23.83
2022-08-23T22:44:31.296Z,24.53
2022-08-23T22:47:00.662Z,26.87
2022-08-23T22:49:31.050Z,28.17
2022-08-23T22:52:20.569Z,30.07
2022-08-23T22:54:50.023Z,29.10
2022-08-23T22:57:19.105Z,28.70
2022-08-23T22:59:48.123Z,27.57
2022-08-23T23:02:19.541Z,28.03
2022-08-23T23:04:48.352Z,27.97
2022-08-23T23:07:38.558Z,30.63
2022-08-23T23:10:10.409Z,30.27
2022-08-23T23:12:39.666Z,29.67
2022-08-23T23:15:10.003Z,32.33
2022-08-23T23:17:39.006Z,31.60
2022-08-23T23:20:25.839Z,31.37
2022-08-23T23:22:55.079Z,32.30
2022-08-23T23:25:25.635Z,32.27
2022-08-23T23:27:54.744Z,30.90
2022-08-23T23:30:23.697Z,30.87
2022-08-23T23:33:11.673Z,29.10
2022-08-23T23:35:40.735Z,29.60
2022-08-23T23:38:10.306Z,28.37
2022-08-23T23:40:41.462Z,29.63
2022-08-23T23:43:13.195Z,29.80
2022-08-23T23:45:42.964Z,30.47
2022-08-23T23:48:12.853Z,29.80
2022-08-23T23:50:46.975Z,32.43
2022-08-23T23:53:16.555Z,31.57
2022-08-23T23:55:48.155Z,32.07
2022-08-23T23:58:38.004Z,29.37
